Warning: Javascript must be enabled to use all the features on this page!


Page Loading - Please Wait...

Click to hideNews Bulletins

Peak Streamflow for the Nation

USGS 07054410 Bear Creek near Omaha, AR

Boone County, Arkansas
Hydrologic Unit Code 11010003
Latitude  36°26'58", Longitude  93°04'30" NAD83
Drainage area 133  square miles
Output formats
Table
Graph
Tab-separated file
peakfq (watstore) format
Reselect output format
Water
Year
Date Gage
Height
(feet)
Stream-
flow
(cfs)
1995 1995-01-13 8.78 9,000
1996 1996-09-26 8.31 8,000
1997 1996-11-07 9.20 9,870
1998 1998-01-05 6.77 5,120
1999 1999-05-04 6.26 4,310
2000 2000-06-17 6.21 4,240
2001 2001-02-15 4.10 1,630
2002 2002-06-10 11.38 15,900
2003 2002-12-30 3.90 1,440
2004 2004-04-24 12.13 18,800
2005 2004-10-28 9.81 11,300
2006 2006-04-25 5.47 3,240
2007 2006-11-30 8.58 8,520
2008 2008-06-23 14.25 31,200
2009 2009-05-03 5.58 3,340
2010 2009-10-09 13.97 29,100
2011 2011-04-25 16.94 55,600
2012 2012-03-21 7.19 5,840
2013 2013-08-08 18.02 49,400
2014 2014-06-21 6.47 4,400
2015 2015-09-09 6.92 5,110
2016 2015-12-27 12.67 20,900
2017 2017-04-29 14.195 29,200
2018 2018-03-29 7.20 5,580
2019 2019-05-01 10.56 12,900
?
  Peak Gage-Height Qualification Codes.